Terminal Aerodrome Forecast
Issued by NWS Albuquerque, NM

Home | Current Version | Previous Version | Text Only | Print | Product List | Glossary On
Versions: 1 2 3 4 5 6 7 8 9 10 11 12 13 14 15 16 17 18 19 20 21 22 23
809
FTUS45 KABQ 260145 AAB
TAFABQ
TAF AMD
KABQ 260145Z 2602/2624 15015G25KT P6SM VCSH BKN100
     FM260600 11011KT P6SM BKN100
     FM261900 20010KT P6SM SCT100
     FM262200 23012G22KT P6SM SCT100 BKN150=

USA.gov is the U.S. government's official web portal to all federal, state and local government web resources and services.